Time;durP1;ratioP1;P1;durP2;ratioP2;P2;SDS_P1;SDS_P2;PMS_P1;PMS_P2;Temp;Humidity;BMP_temperature;BMP_pressure;BME280_temperature;BME280_humidity;BME280_pressure;Samples;Min_cycle;Max_cycle;Signal;HPM_P1;HPM_P2
2022/11/01 00:00:08;;;;;;;1.50;1.10;;;14.70;99.90;;;;;;5073899;28;20032;-76
2022/11/01 00:02:35;;;;;;;4.78;0.77;;;14.70;99.90;;;;;;5072951;28;20041;-77
2022/11/01 00:05:01;;;;;;;2.33;1.15;;;14.70;99.90;;;;;;5072630;28;20131;-73
2022/11/01 00:07:27;;;;;;;1.23;0.73;;;14.60;99.90;;;;;;5072508;28;20488;-77
2022/11/01 00:09:52;;;;;;;4.13;0.82;;;14.50;99.90;;;;;;5072851;28;20043;-75
2022/11/01 00:12:18;;;;;;;1.73;1.08;;;14.60;99.90;;;;;;5073691;28;20044;-75
2022/11/01 00:14:44;;;;;;;3.47;1.05;;;14.60;99.90;;;;;;5073834;28;20492;-72
2022/11/01 00:17:10;;;;;;;1.20;0.80;;;14.60;99.90;;;;;;5072588;28;20373;-72
2022/11/01 00:19:35;;;;;;;2.17;1.08;;;14.50;99.90;;;;;;5071833;28;20044;-72
2022/11/01 00:22:01;;;;;;;1.48;1.10;;;14.50;99.90;;;;;;5058962;28;20058;-74
2022/11/01 00:24:29;;;;;;;3.15;1.88;;;14.40;99.90;;;;;;5051702;28;20043;-72
2022/11/01 00:26:55;;;;;;;1.55;0.90;;;14.60;99.90;;;;;;5053525;28;20033;-72
2022/11/01 00:29:22;;;;;;;3.00;0.80;;;14.30;99.90;;;;;;5052251;28;20033;-72
2022/11/01 00:31:48;;;;;;;4.78;1.15;;;14.60;99.90;;;;;;5053454;28;20123;-73
2022/11/01 00:34:15;;;;;;;2.95;0.98;;;14.50;99.90;;;;;;5053324;28;20396;-75
2022/11/01 00:36:41;;;;;;;1.45;0.88;;;14.40;99.90;;;;;;5052423;28;20123;-75
2022/11/01 00:39:06;;;;;;;1.77;0.70;;;14.50;99.90;;;;;;5053543;28;20468;-73
2022/11/01 00:41:33;;;;;;;0.85;0.47;;;14.50;99.90;;;;;;5053623;28;20183;-73
2022/11/01 00:43:59;;;;;;;2.65;0.85;;;14.40;99.90;;;;;;5053310;28;20052;-73
2022/11/01 00:46:24;;;;;;;3.03;0.70;;;14.50;99.90;;;;;;5053419;28;20496;-75
2022/11/01 00:48:50;;;;;;;5.60;0.70;;;14.40;99.90;;;;;;5053467;28;20033;-74
2022/11/01 00:51:19;;;;;;;2.05;0.80;;;14.50;99.90;;;;;;5053513;28;20072;-73
2022/11/01 00:53:44;;;;;;;3.25;1.48;;;14.60;99.90;;;;;;5053350;28;20036;-75
2022/11/01 00:56:10;;;;;;;1.48;0.47;;;14.60;99.90;;;;;;5053309;28;20037;-73
2022/11/01 00:58:36;;;;;;;4.78;0.90;;;14.70;99.90;;;;;;5051836;28;20128;-72
2022/11/01 01:01:02;;;;;;;2.75;0.90;;;14.40;99.90;;;;;;5052318;28;20104;-73
2022/11/01 01:03:27;;;;;;;1.23;0.50;;;14.20;99.90;;;;;;5053182;28;20045;-72
2022/11/01 01:05:54;;;;;;;1.88;0.80;;;14.40;99.90;;;;;;5052098;28;20041;-71
2022/11/01 01:08:20;;;;;;;5.80;1.00;;;14.30;99.90;;;;;;5053332;28;20036;-73
2022/11/01 01:10:49;;;;;;;1.95;0.70;;;14.40;99.90;;;;;;5052088;28;20037;-72
2022/11/01 01:13:15;;;;;;;1.52;0.98;;;14.20;99.90;;;;;;5053345;28;20044;-75
2022/11/01 01:15:41;;;;;;;2.90;0.82;;;14.30;99.90;;;;;;5066621;28;20093;-74
2022/11/01 01:18:08;;;;;;;4.05;0.90;;;14.10;99.90;;;;;;5071506;28;20043;-72
2022/11/01 01:20:34;;;;;;;3.03;0.98;;;14.20;99.90;;;;;;5071694;28;20593;-72
2022/11/01 01:23:00;;;;;;;1.40;0.85;;;14.20;99.90;;;;;;5073197;28;20158;-73
2022/11/01 01:25:25;;;;;;;3.70;0.90;;;14.30;99.90;;;;;;5071796;28;20036;-72
2022/11/01 01:27:51;;;;;;;2.22;1.02;;;14.10;99.90;;;;;;5069804;28;20044;-75
2022/11/01 01:30:17;;;;;;;6.93;1.40;;;14.10;99.90;;;;;;5070130;28;20039;-72
2022/11/01 01:32:43;;;;;;;5.38;0.95;;;14.00;99.90;;;;;;5073447;28;20032;-74
2022/11/01 01:35:09;;;;;;;3.00;1.20;;;14.20;99.90;;;;;;5074792;28;20043;-75
2022/11/01 01:37:35;;;;;;;3.00;1.13;;;14.10;99.90;;;;;;5076608;28;20033;-72
2022/11/01 01:40:01;;;;;;;1.83;1.13;;;14.00;99.90;;;;;;5076653;28;20044;-74
2022/11/01 01:42:46;;;;;;;2.50;1.20;;;14.00;99.90;;;;;;5075672;28;20075;-75
2022/11/01 01:45:29;;;;;;;2.17;1.27;;;14.10;99.90;;;;;;5075109;28;20036;-71
2022/11/01 01:47:57;;;;;;;2.65;1.20;;;;;;;;;;5076070;28;20446;-73
2022/11/01 01:50:28;;;;;;;7.03;1.40;;;;;;;;;;5076028;28;20033;-74
2022/11/01 01:52:56;;;;;;;2.97;1.00;;;;;;;;;;5076498;28;20450;-74
2022/11/01 01:55:25;;;;;;;5.80;1.42;;;;;;;;;;5076444;28;20048;-72
2022/11/01 01:57:52;;;;;;;4.70;1.23;;;;;;;;;;5076262;28;20040;-75
2022/11/01 02:00:18;;;;;;;3.15;1.10;;;;;;;;;;5075130;28;20083;-75
2022/11/01 02:02:44;;;;;;;5.38;1.35;;;;;;;;;;5076002;28;20063;-75
2022/11/01 02:05:30;;;;;;;3.15;0.90;;;;;;;;;;5074720;28;20040;-72
2022/11/01 02:07:57;;;;;;;2.65;1.20;;;;;;;;;;5075085;28;20082;-75
2022/11/01 02:10:23;;;;;;;2.80;1.48;;;;;;;;;;5076052;28;20387;-73
2022/11/01 02:12:49;;;;;;;4.72;1.75;;;13.90;99.90;;;;;;5074631;28;20469;-72
2022/11/01 02:15:17;;;;;;;5.85;1.55;;;14.10;99.90;;;;;;5074691;28;20120;-75
2022/11/01 02:18:05;;;;;;;6.40;2.15;;;14.00;99.90;;;;;;5074634;28;20099;-74
2022/11/01 02:20:41;;;;;;;5.35;1.67;;;14.00;99.90;;;;;;5075605;28;20511;-75
2022/11/01 02:23:55;;;;;;;6.10;2.55;;;14.00;99.90;;;;;;5076134;28;20044;-73
2022/11/01 02:26:43;;;;;;;5.63;2.50;;;14.00;99.90;;;;;;5055753;28;20033;-74
2022/11/01 02:29:28;;;;;;;4.88;2.60;;;14.00;99.90;;;;;;5075521;28;20542;-73
2022/11/01 02:32:10;;;;;;;3.22;2.10;;;14.20;99.90;;;;;;5075462;28;20049;-74
2022/11/01 02:34:47;;;;;;;7.13;2.60;;;14.10;99.90;;;;;;5073742;28;20032;-73
2022/11/01 02:37:25;;;;;;;5.45;3.40;;;14.10;99.90;;;;;;5075465;28;20105;-75
2022/11/01 02:39:57;;;;;;;9.20;3.53;;;14.00;99.90;;;;;;5075515;28;20032;-73
2022/11/01 02:42:35;;;;;;;8.55;3.50;;;14.20;99.90;;;;;;5075321;28;20488;-75
2022/11/01 02:45:26;;;;;;;6.53;3.05;;;14.30;99.90;;;;;;5074557;28;20045;-75
2022/11/01 02:47:56;;;;;;;6.40;3.28;;;14.40;99.90;;;;;;5073875;28;20071;-74
2022/11/01 02:50:26;;;;;;;8.65;2.95;;;14.00;99.90;;;;;;5075080;28;20043;-73
2022/11/01 02:52:53;;;;;;;8.52;3.13;;;14.30;99.90;;;;;;5075442;28;20090;-73
2022/11/01 02:55:30;;;;;;;7.80;3.60;;;14.10;99.90;;;;;;5073844;28;20506;-72
2022/11/01 02:58:04;;;;;;;6.20;3.38;;;14.10;99.90;;;;;;5074964;28;20476;-73
2022/11/01 03:00:35;;;;;;;6.38;3.40;;;14.20;99.90;;;;;;5075068;28;20048;-73
2022/11/01 03:03:16;;;;;;;;;;;14.40;99.90;;;;;;5075532;28;20055;-73
2022/11/01 03:05:57;;;;;;;5.93;3.03;;;14.10;99.90;;;;;;5074732;28;19934;-72
2022/11/01 03:08:36;;;;;;;6.88;3.13;;;14.20;99.90;;;;;;5073466;28;20123;-74
2022/11/01 03:11:11;;;;;;;5.07;2.72;;;14.10;99.90;;;;;;5073486;28;20047;-73
2022/11/01 03:14:00;;;;;;;8.30;2.90;;;14.20;99.90;;;;;;5074761;28;20392;-72
2022/11/01 03:16:47;;;;;;;6.65;3.22;;;14.40;99.90;;;;;;5074725;28;20032;-73
2022/11/01 03:19:18;;;;;;;5.72;3.60;;;14.30;99.90;;;;;;5074651;28;20048;-74
2022/11/01 03:22:08;;;;;;;11.77;3.75;;;14.20;99.90;;;;;;5073139;28;20040;-73
2022/11/01 03:24:58;;;;;;;8.25;3.55;;;14.40;99.90;;;;;;5073816;28;20131;-72
2022/11/01 03:27:40;;;;;;;4.50;2.97;;;14.10;99.90;;;;;;5074223;28;20051;-74
2022/11/01 03:30:08;;;;;;;6.13;3.13;;;14.40;99.90;;;;;;5074304;28;20109;-73
2022/11/01 03:32:42;;;;;;;6.00;3.10;;;14.30;99.90;;;;;;5072929;28;20040;-72
2022/11/01 03:35:12;;;;;;;6.32;2.90;;;14.30;99.90;;;;;;5074205;28;20036;-72
2022/11/01 03:37:42;;;;;;;7.60;3.22;;;14.50;99.90;;;;;;5074419;28;20044;-72
2022/11/01 03:40:11;;;;;;;9.27;3.40;;;14.60;99.90;;;;;;5072801;28;20419;-72
2022/11/01 03:42:40;;;;;;;5.47;3.10;;;14.60;99.90;;;;;;5074377;28;20382;-72
2022/11/01 03:45:10;;;;;;;4.50;2.22;;;14.30;99.90;;;;;;5074254;28;20110;-73
2022/11/01 03:47:36;;;;;;;10.43;2.53;;;14.70;99.90;;;;;;5074008;28;20500;-73
2022/11/01 03:50:19;;;;;;;4.40;2.85;;;14.40;99.90;;;;;;5073935;28;20039;-72
2022/11/01 03:52:45;;;;;;;5.20;2.70;;;14.60;99.90;;;;;;5074238;28;20384;-75
2022/11/01 03:55:18;;;;;;;7.10;2.67;;;14.30;99.90;;;;;;5073818;28;20521;-73
2022/11/01 03:57:44;;;;;;;5.93;2.72;;;14.70;99.90;;;;;;5073733;28;20041;-75
2022/11/01 04:00:15;;;;;;;5.85;2.85;;;14.60;99.90;;;;;;5073687;28;20036;-72
2022/11/01 04:02:42;;;;;;;7.60;2.85;;;14.50;99.90;;;;;;5073758;28;20048;-74
2022/11/01 04:05:09;;;;;;;4.40;2.20;;;14.40;99.90;;;;;;5074126;28;20044;-73
2022/11/01 04:07:35;;;;;;;8.55;2.67;;;14.90;99.90;;;;;;5072470;28;20036;-75
2022/11/01 04:10:01;;;;;;;4.18;2.83;;;14.40;99.90;;;;;;5073846;28;20040;-73
2022/11/01 04:12:26;;;;;;;5.00;2.83;;;14.40;99.90;;;;;;5073854;28;20093;-73
2022/11/01 04:20:33;;;;;;;5.40;2.70;;;14.60;99.90;;;;;;5073508;28;20087;-74
2022/11/01 04:23:04;;;;;;;5.60;2.40;;;14.40;99.90;;;;;;5073650;28;20054;-73
2022/11/01 04:25:30;;;;;;;3.83;2.75;;;14.60;99.90;;;;;;5071797;28;20067;-72
2022/11/01 04:27:57;;;;;;;6.57;3.00;;;14.40;99.90;;;;;;5062396;28;20037;-73
2022/11/01 04:30:27;;;;;;;8.38;2.85;;;14.40;99.90;;;;;;5050709;28;20476;-73
2022/11/01 04:32:53;;;;;;;7.68;3.30;;;14.30;99.90;;;;;;5053947;28;20554;-73
2022/11/01 04:35:19;;;;;;;4.72;2.95;;;14.10;99.90;;;;;;5052436;28;20032;-73
2022/11/01 04:37:45;;;;;;;4.95;2.85;;;14.20;99.90;;;;;;5053428;28;20484;-73
2022/11/01 04:40:12;;;;;;;6.93;3.10;;;14.10;99.90;;;;;;5051876;28;20032;-73
2022/11/01 04:42:38;;;;;;;9.13;3.85;;;13.90;99.90;;;;;;5052386;28;20143;-73
2022/11/01 04:45:06;;;;;;;6.40;3.10;;;14.10;99.90;;;;;;5054457;28;20048;-73
2022/11/01 04:47:32;;;;;;;5.15;2.97;;;13.90;99.90;;;;;;5072077;28;20044;-74
2022/11/01 04:49:58;;;;;;;6.00;2.85;;;14.00;99.90;;;;;;5072110;28;20488;-73
2022/11/01 04:52:23;;;;;;;5.85;2.78;;;14.00;99.90;;;;;;5073439;28;20041;-75
2022/11/01 04:54:49;;;;;;;3.45;2.20;;;14.10;99.90;;;;;;5072078;28;20050;-72
2022/11/01 04:57:24;;;;;;;3.28;2.22;;;14.20;99.90;;;;;;5073033;28;20056;-74
2022/11/01 04:59:54;;;;;;;4.70;2.60;;;14.10;99.90;;;;;;5072337;28;20123;-73
2022/11/01 05:02:22;;;;;;;4.28;2.40;;;14.20;99.90;;;;;;5072160;28;20435;-73
2022/11/01 05:04:48;;;;;;;3.28;2.30;;;14.40;99.90;;;;;;5072273;28;20068;-72
2022/11/01 05:07:15;;;;;;;5.28;2.05;;;14.40;99.90;;;;;;5074013;28;20043;-72
2022/11/01 05:09:41;;;;;;;4.07;2.47;;;14.10;99.90;;;;;;5077014;28;20102;-73
2022/11/01 05:12:08;;;;;;;5.10;2.63;;;14.30;99.90;;;;;;5076469;28;20040;-73
2022/11/01 05:14:33;;;;;;;6.20;2.42;;;14.50;99.90;;;;;;5077051;28;20456;-73
2022/11/01 05:16:59;;;;;;;4.10;2.15;;;14.60;99.90;;;;;;5076826;28;20083;-75
2022/11/01 05:19:25;;;;;;;4.40;2.20;;;14.40;99.90;;;;;;5076774;28;20025;-74
2022/11/01 05:21:51;;;;;;;3.35;2.15;;;14.30;99.90;;;;;;5076580;28;20055;-74
2022/11/01 05:24:17;;;;;;;4.53;2.33;;;14.30;99.90;;;;;;5075307;28;20044;-73
2022/11/01 05:26:43;;;;;;;7.32;2.67;;;14.20;99.90;;;;;;5075325;28;20153;-74
2022/11/01 05:29:09;;;;;;;3.83;2.55;;;14.10;99.90;;;;;;5076746;28;20119;-73
2022/11/01 05:31:35;;;;;;;6.63;3.30;;;14.20;99.90;;;;;;5076704;28;20137;-75
2022/11/01 05:34:02;;;;;;;4.72;2.92;;;14.50;99.90;;;;;;5076395;28;20035;-73
2022/11/01 05:36:28;;;;;;;6.35;2.55;;;14.40;99.90;;;;;;5076195;28;20055;-73
2022/11/01 05:38:57;;;;;;;4.78;2.35;;;14.20;99.90;;;;;;5075558;28;20472;-74
2022/11/01 05:41:24;;;;;;;4.85;2.00;;;14.50;99.90;;;;;;5075229;28;20037;-73
2022/11/01 05:43:49;;;;;;;5.35;2.35;;;14.20;99.90;;;;;;5075371;28;20071;-73
2022/11/01 05:46:16;;;;;;;4.13;1.83;;;14.00;99.90;;;;;;5075087;28;20063;-74
2022/11/01 05:48:41;;;;;;;5.60;2.00;;;14.20;99.90;;;;;;5075217;28;20041;-73
2022/11/01 05:51:08;;;;;;;12.98;1.90;;;14.00;99.90;;;;;;5076682;28;20042;-74
2022/11/01 05:53:34;;;;;;;2.25;1.35;;;14.00;99.90;;;;;;5076564;28;20040;-73
2022/11/01 05:56:00;;;;;;;3.90;1.17;;;13.90;99.90;;;;;;5075059;28;20039;-73
2022/11/01 05:58:26;;;;;;;3.50;1.25;;;14.10;99.90;;;;;;5076019;28;20519;-74
2022/11/01 06:01:00;;;;;;;2.47;1.20;;;14.40;99.90;;;;;;5074789;28;20032;-74
2022/11/01 06:03:25;;;;;;;1.67;0.98;;;14.10;99.90;;;;;;5074756;28;20049;-73
2022/11/01 06:05:51;;;;;;;2.85;1.20;;;14.00;99.90;;;;;;5076036;28;20492;-73
2022/11/01 06:08:17;;;;;;;1.92;1.27;;;14.20;99.90;;;;;;5075128;28;20040;-75
2022/11/01 06:10:43;;;;;;;2.15;1.05;;;14.00;99.90;;;;;;5076015;28;20071;-74
2022/11/01 06:13:09;;;;;;;4.03;1.30;;;13.90;99.90;;;;;;5076034;28;20099;-73
2022/11/01 06:15:35;;;;;;;3.92;1.52;;;14.20;99.90;;;;;;5075924;28;20127;-75
2022/11/01 06:18:01;;;;;;;2.50;1.60;;;14.10;99.90;;;;;;5075672;28;20574;-74
2022/11/01 06:20:28;;;;;;;3.85;1.70;;;14.20;99.90;;;;;;5074828;28;20507;-74
2022/11/01 06:22:55;;;;;;;2.28;1.20;;;13.90;99.90;;;;;;5075344;28;20056;-74
2022/11/01 06:25:21;;;;;;;2.38;1.45;;;13.90;99.90;;;;;;5075375;28;20078;-74
2022/11/01 06:27:47;;;;;;;2.78;1.38;;;14.10;99.90;;;;;;5075659;28;20043;-75
2022/11/01 06:30:13;;;;;;;2.15;1.25;;;14.10;99.90;;;;;;5075771;28;20091;-73
2022/11/01 06:32:39;;;;;;;4.03;1.30;;;14.20;99.90;;;;;;5075473;28;20044;-74
2022/11/01 06:35:05;;;;;;;2.35;0.95;;;14.20;99.90;;;;;;5074669;28;20040;-75
2022/11/01 06:37:31;;;;;;;2.25;1.23;;;14.20;99.90;;;;;;5074056;28;20045;-74
2022/11/01 06:39:57;;;;;;;4.95;1.77;;;14.10;99.90;;;;;;5075391;28;20094;-73
2022/11/01 06:42:23;;;;;;;1.75;0.95;;;14.10;99.90;;;;;;5073957;28;20136;-73
2022/11/01 06:44:49;;;;;;;1.30;0.80;;;14.30;99.90;;;;;;5075173;28;20037;-72
2022/11/01 06:47:15;;;;;;;2.08;0.73;;;14.20;99.90;;;;;;5073743;28;20086;-73
2022/11/01 06:49:41;;;;;;;2.17;0.70;;;13.90;99.90;;;;;;5075140;28;20472;-73
2022/11/01 06:52:07;;;;;;;3.15;0.88;;;13.90;99.90;;;;;;5075132;28;20119;-73
2022/11/01 06:54:33;;;;;;;3.53;1.00;;;14.00;99.90;;;;;;5073954;28;20502;-74
2022/11/01 06:56:59;;;;;;;1.33;0.45;;;14.10;99.90;;;;;;5073799;28;20178;-75
2022/11/01 06:59:24;;;;;;;2.22;0.80;;;14.00;99.90;;;;;;5073871;28;20040;-74
2022/11/01 07:01:53;;;;;;;5.38;0.88;;;13.80;99.90;;;;;;5074922;28;20404;-72
2022/11/01 07:04:20;;;;;;;2.03;0.93;;;13.80;99.90;;;;;;5074928;28;20036;-72
2022/11/01 07:06:45;;;;;;;2.75;0.75;;;13.80;99.90;;;;;;5074954;28;20047;-74
2022/11/01 07:09:12;;;;;;;6.57;1.38;;;13.90;99.90;;;;;;5074929;28;20025;-72
2022/11/01 07:11:38;;;;;;;1.98;0.82;;;14.00;99.90;;;;;;5074715;28;20033;-72
2022/11/01 07:14:04;;;;;;;3.40;0.70;;;13.90;99.90;;;;;;5074302;28;20151;-74
2022/11/01 07:16:31;;;;;;;1.65;0.57;;;13.80;99.90;;;;;;5073743;28;20032;-72
2022/11/01 07:18:57;;;;;;;2.15;0.88;;;;;;;;;;5074347;28;20037;-72
2022/11/01 07:21:23;;;;;;;2.83;0.80;;;13.30;99.90;;;;;;5073351;28;20118;-74
2022/11/01 07:23:49;;;;;;;4.03;0.80;;;13.30;99.90;;;;;;5074608;28;20047;-72
2022/11/01 07:26:15;;;;;;;3.90;0.77;;;13.20;99.90;;;;;;5074556;28;20123;-75
2022/11/01 07:28:41;;;;;;;3.78;0.80;;;13.20;99.90;;;;;;5074374;28;20036;-72
2022/11/01 07:31:07;;;;;;;5.03;1.17;;;13.10;99.90;;;;;;5072562;28;20037;-72
2022/11/01 07:33:33;;;;;;;3.63;0.75;;;13.20;99.90;;;;;;5074268;28;20040;-75
2022/11/01 07:36:00;;;;;;;1.67;0.75;;;13.20;99.90;;;;;;5074412;28;20043;-74
2022/11/01 07:38:25;;;;;;;3.92;0.90;;;13.20;99.90;;;;;;5072865;28;20174;-73
2022/11/01 07:40:53;;;;;;;6.47;1.15;;;13.20;99.90;;;;;;5072987;28;20123;-73
2022/11/01 07:43:19;;;;;;;3.03;1.20;;;13.20;99.90;;;;;;5072782;28;20119;-73
2022/11/01 07:45:46;;;;;;;5.38;1.17;;;13.20;99.90;;;;;;5072700;28;20484;-74
2022/11/01 07:48:14;;;;;;;2.15;0.85;;;13.30;99.90;;;;;;5072838;28;20064;-73
2022/11/01 07:50:41;;;;;;;3.75;0.77;;;13.30;99.90;;;;;;5074357;28;20046;-72
2022/11/01 07:53:17;;;;;;;4.43;0.90;;;13.30;99.90;;;;;;5072291;28;20596;-73
2022/11/01 07:55:44;;;;;;;4.03;0.60;;;13.30;99.90;;;;;;5074087;28;20044;-74
2022/11/01 07:58:11;;;;;;;1.90;0.60;;;13.20;99.90;;;;;;5073835;28;20042;-73
2022/11/01 08:00:38;;;;;;;7.50;1.48;;;13.20;99.90;;;;;;5073869;28;20044;-72
2022/11/01 08:03:08;;;;;;;4.53;1.10;;;13.50;99.90;;;;;;5072568;28;20044;-75
2022/11/01 08:05:35;;;;;;;4.45;1.17;;;13.70;99.90;;;;;;5074053;28;20064;-75
2022/11/01 08:08:01;;;;;;;7.95;0.73;;;14.10;99.90;;;;;;5073825;28;20030;-73
2022/11/01 08:10:27;;;;;;;4.53;0.77;;;14.60;99.90;;;;;;5072445;28;20075;-73
2022/11/01 08:13:07;;;;;;;4.10;1.25;;;;;;;;;;5073924;28;20036;-73
2022/11/01 08:15:33;;;;;;;5.87;0.90;;;15.20;99.90;;;;;;5074057;28;20075;-75
2022/11/01 08:17:59;;;;;;;4.15;0.80;;;15.40;99.90;;;;;;5072604;28;20681;-73
2022/11/01 08:20:26;;;;;;;1.45;0.90;;;15.60;99.90;;;;;;5072650;28;20101;-74
2022/11/01 08:22:52;;;;;;;1.65;0.70;;;15.60;99.90;;;;;;5072424;28;20147;-74
2022/11/01 08:25:19;;;;;;;3.20;0.90;;;15.60;99.90;;;;;;5073655;28;20376;-73
2022/11/01 08:27:46;;;;;;;2.55;1.23;;;15.70;99.90;;;;;;5072134;28;20068;-73
2022/11/01 08:30:14;;;;;;;4.85;1.08;;;16.10;99.90;;;;;;5073393;28;20043;-73
2022/11/01 08:32:40;;;;;;;3.53;0.80;;;16.30;99.90;;;;;;5067944;28;20036;-73
2022/11/01 08:35:06;;;;;;;4.43;0.90;;;16.60;99.90;;;;;;5055501;28;20178;-74
2022/11/01 08:37:32;;;;;;;6.90;0.85;;;16.80;99.90;;;;;;5051103;28;20045;-73
2022/11/01 08:39:58;;;;;;;2.25;0.70;;;17.00;99.90;;;;;;5051639;28;20048;-72
2022/11/01 08:42:24;;;;;;;5.18;0.88;;;16.60;99.90;;;;;;5051682;28;20523;-72
2022/11/01 08:44:52;;;;;;;3.80;0.70;;;16.50;99.90;;;;;;5054101;28;20396;-72
2022/11/01 08:47:19;;;;;;;3.83;0.90;;;17.00;99.90;;;;;;5055684;28;20090;-72
2022/11/01 08:49:45;;;;;;;1.85;0.65;;;17.30;99.90;;;;;;5055664;28;20045;-73
2022/11/01 08:52:12;;;;;;;1.58;0.75;;;16.70;99.90;;;;;;5056776;28;20369;-72
2022/11/01 08:54:37;;;;;;;2.67;0.80;;;16.50;99.90;;;;;;5054026;28;20039;-72
2022/11/01 08:57:03;;;;;;;4.40;0.68;;;16.90;99.90;;;;;;5053868;28;20461;-73
2022/11/01 08:59:31;;;;;;;4.07;0.77;;;17.20;99.90;;;;;;5054199;28;20037;-73
2022/11/01 09:01:56;;;;;;;6.30;0.90;;;17.30;99.90;;;;;;5053752;28;20044;-73
2022/11/01 09:04:23;;;;;;;2.67;0.60;;;;;;;;;;5053112;28;20039;-73
2022/11/01 09:06:49;;;;;;;8.38;1.08;;;17.60;99.90;;;;;;5053894;28;20033;-73
2022/11/01 09:09:15;;;;;;;3.05;0.88;;;17.60;99.90;;;;;;5056942;28;20434;-73
2022/11/01 09:11:43;;;;;;;4.50;0.77;;;17.00;99.90;;;;;;5053405;28;20037;-72
2022/11/01 09:14:08;;;;;;;5.03;1.23;;;17.30;99.90;;;;;;5053902;28;20516;-72
2022/11/01 09:16:38;;;;;;;2.47;0.68;;;17.40;99.90;;;;;;5054587;28;20040;-72
2022/11/01 09:19:03;;;;;;;7.95;1.15;;;17.70;99.90;;;;;;5058317;28;20461;-74
2022/11/01 09:21:30;;;;;;;1.55;0.63;;;17.40;99.90;;;;;;5073768;28;20139;-74
2022/11/01 09:23:57;;;;;;;3.47;1.08;;;17.70;99.90;;;;;;5076161;28;20048;-75
2022/11/01 09:26:28;;;;;;;5.10;0.70;;;17.80;99.90;;;;;;5073943;28;20044;-74
2022/11/01 09:28:57;;;;;;;8.70;1.63;;;17.80;99.90;;;;;;5057114;28;20389;-74
2022/11/01 09:31:23;;;;;;;5.40;1.10;;;18.00;99.90;;;;;;5063138;28;20036;-74
2022/11/01 09:33:49;;;;;;;3.10;0.75;;;17.60;99.90;;;;;;5059123;28;20039;-74
2022/11/01 09:36:15;;;;;;;5.78;1.02;;;18.20;99.90;;;;;;5075060;28;20032;-73
2022/11/01 09:38:41;;;;;;;6.68;1.08;;;18.00;99.90;;;;;;5056294;28;20037;-74
2022/11/01 09:41:29;;;;;;;8.82;1.10;;;17.90;99.90;;;;;;5055093;28;20033;-74
2022/11/01 09:43:58;;;;;;;5.53;0.82;;;18.30;99.90;;;;;;5071188;28;20142;-74
2022/11/01 09:46:30;;;;;;;2.20;0.60;;;18.60;99.90;;;;;;5077810;28;20032;-74
2022/11/01 09:48:59;;;;;;;3.15;0.82;;;18.70;99.90;;;;;;5074789;28;20068;-76
2022/11/01 09:51:26;;;;;;;3.85;0.70;;;17.50;99.90;;;;;;5074766;28;20036;-74
2022/11/01 09:53:55;;;;;;;3.17;0.73;;;17.70;99.90;;;;;;5057997;28;20085;-76
2022/11/01 09:56:29;;;;;;;3.78;0.70;;;17.50;99.90;;;;;;5074535;28;20456;-74
2022/11/01 09:59:10;;;;;;;3.47;1.10;;;17.60;99.90;;;;;;5061395;28;20512;-75
2022/11/01 10:02:29;;;;;;;6.65;0.80;;;17.60;99.90;;;;;;5064925;28;20524;-72
2022/11/01 10:05:22;;;;;;;2.40;0.60;;;18.20;99.90;;;;;;5046808;28;20106;-71
2022/11/01 10:08:13;;;;;;;4.38;0.70;;;18.20;99.90;;;;;;5079919;28;20036;-72
2022/11/01 10:10:45;;;;;;;3.22;1.52;;;18.50;99.90;;;;;;5072615;28;20066;-71
2022/11/01 10:13:20;;;;;;;4.80;0.70;;;18.30;99.90;;;;;;5072830;28;20051;-74
2022/11/01 10:16:08;;;;;;;3.60;0.73;;;18.60;99.90;;;;;;5071225;28;20040;-75
2022/11/01 10:18:52;;;;;;;2.63;0.80;;;19.10;99.90;;;;;;5069794;28;20044;-74
2022/11/01 10:21:20;;;;;;;3.58;1.15;;;19.10;99.90;;;;;;5080294;28;20047;-75
2022/11/01 10:23:51;;;;;;;1.67;0.52;;;18.90;99.90;;;;;;5069860;28;20070;-74
2022/11/01 10:26:24;;;;;;;6.38;0.63;;;19.10;99.90;;;;;;5076555;28;20543;-75
2022/11/01 10:29:12;;;;;;;5.47;0.98;;;19.30;99.90;;;;;;5074579;28;20076;-75
2022/11/01 10:31:48;;;;;;;4.55;0.93;;;18.50;99.90;;;;;;5061996;28;20054;-75
2022/11/01 10:34:28;;;;;;;2.10;0.55;;;19.10;99.90;;;;;;5062173;28;20047;-76
2022/11/01 10:37:34;;;;;;;4.18;0.90;;;19.10;99.90;;;;;;5069599;28;20068;-76
2022/11/01 10:40:03;;;;;;;5.35;0.82;;;19.10;99.90;;;;;;5048370;28;20048;-75
2022/11/01 10:42:29;;;;;;;2.40;0.80;;;19.10;99.90;;;;;;5059517;28;20072;-76
2022/11/01 10:45:00;;;;;;;3.55;0.70;;;19.40;99.90;;;;;;5084409;28;20173;-76
2022/11/01 10:47:27;;;;;;;2.25;0.50;;;19.30;99.90;;;;;;5073166;28;20048;-75
2022/11/01 10:50:01;;;;;;;3.47;0.70;;;19.40;99.90;;;;;;5072533;28;20032;-76
2022/11/01 10:52:34;;;;;;;4.50;0.85;;;19.50;99.90;;;;;;5081598;28;20040;-76
2022/11/01 10:55:02;;;;;;;7.03;0.85;;;19.20;99.90;;;;;;5086074;28;20043;-76
2022/11/01 10:57:43;;;;;;;1.17;0.90;;;18.90;99.90;;;;;;5074063;28;20028;-76
2022/11/01 11:00:18;;;;;;;5.22;0.80;;;18.90;99.90;;;;;;5068634;28;20076;-75
2022/11/01 11:02:49;;;;;;;1.83;0.68;;;19.00;99.90;;;;;;5076081;28;20074;-75
2022/11/01 11:05:15;;;;;;;4.05;1.10;;;18.90;99.90;;;;;;5068640;28;20033;-75
2022/11/01 11:07:42;;;;;;;3.25;0.70;;;18.60;99.90;;;;;;5079981;28;20040;-74
2022/11/01 11:10:27;;;;;;;4.88;0.60;;;18.70;99.90;;;;;;5084589;28;20045;-75
2022/11/01 11:13:03;;;;;;;6.60;0.93;;;18.70;99.90;;;;;;5090502;28;20073;-75
2022/11/01 11:15:35;;;;;;;4.43;0.47;;;18.20;99.90;;;;;;5081449;28;20044;-75
2022/11/01 11:18:02;;;;;;;3.35;0.80;;;18.30;99.90;;;;;;5072905;28;20035;-75
2022/11/01 11:20:33;;;;;;;3.83;0.80;;;17.80;99.90;;;;;;5083105;28;20036;-74
2022/11/01 11:23:01;;;;;;;4.45;1.02;;;18.30;99.90;;;;;;5086760;28;20079;-75
2022/11/01 11:25:36;;;;;;;1.15;0.80;;;18.70;99.90;;;;;;5081698;28;20041;-75
2022/11/01 11:28:03;;;;;;;1.95;0.93;;;17.90;99.90;;;;;;5063401;28;20040;-74
2022/11/01 11:30:32;;;;;;;2.10;0.50;;;18.00;99.90;;;;;;5083583;28;20430;-75
2022/11/01 11:33:00;;;;;;;2.85;0.68;;;18.40;99.90;;;;;;5081990;28;20039;-74
2022/11/01 11:35:30;;;;;;;6.93;0.70;;;18.60;99.90;;;;;;5081096;28;20078;-75
2022/11/01 11:38:01;;;;;;;5.40;0.97;;;18.30;99.90;;;;;;5089971;28;20369;-75
2022/11/01 11:40:41;;;;;;;4.53;0.52;;;18.40;99.90;;;;;;5089692;28;20039;-75
2022/11/01 11:43:32;;;;;;;3.25;0.68;;;18.70;99.90;;;;;;5079704;28;20040;-75
2022/11/01 11:46:11;;;;;;;2.13;0.85;;;18.80;99.90;;;;;;5088394;28;20117;-75
2022/11/01 11:49:03;;;;;;;4.05;0.93;;;18.90;99.90;;;;;;5090957;28;20058;-74
2022/11/01 11:51:36;;;;;;;1.33;1.05;;;19.30;99.90;;;;;;5088014;28;20039;-74
2022/11/01 11:54:20;;;;;;;24.27;6.63;;;19.10;99.90;;;;;;5091227;28;20135;-74
2022/11/01 11:56:49;;;;;;;5.40;1.35;;;19.50;99.90;;;;;;5089490;28;20039;-74
2022/11/01 11:59:24;;;;;;;10.95;3.55;;;19.10;99.90;;;;;;5071550;28;20056;-74
2022/11/01 12:02:03;;;;;;;4.13;1.25;;;18.90;99.90;;;;;;5087013;28;20046;-73
2022/11/01 12:04:50;;;;;;;3.83;1.17;;;18.70;99.90;;;;;;5094106;28;20139;-74
2022/11/01 12:07:43;;;;;;;3.08;0.77;;;18.80;99.90;;;;;;5085971;28;20039;-74
2022/11/01 12:10:32;;;;;;;3.20;0.85;;;19.00;99.90;;;;;;5093981;28;20040;-74
2022/11/01 12:13:03;;;;;;;4.32;0.75;;;18.70;99.90;;;;;;5090960;28;20044;-72
2022/11/01 12:15:30;;;;;;;5.13;0.90;;;18.20;99.90;;;;;;5087234;28;20036;-73
2022/11/01 12:18:08;;;;;;;1.65;0.52;;;17.80;99.90;;;;;;5085413;28;20499;-73
2022/11/01 12:20:38;;;;;;;3.97;0.90;;;17.80;99.90;;;;;;5083261;28;20037;-72
2022/11/01 12:23:28;;;;;;;7.70;1.05;;;18.00;99.90;;;;;;5050538;28;20045;-72
2022/11/01 12:25:56;;;;;;;2.55;0.68;;;18.10;99.90;;;;;;5052452;28;20152;-72
2022/11/01 12:28:40;;;;;;;4.10;0.60;;;17.90;99.90;;;;;;5078762;28;20495;-72
2022/11/01 12:31:22;;;;;;;1.80;0.70;;;18.00;99.90;;;;;;5075811;28;20139;-72
2022/11/01 12:34:05;;;;;;;2.67;0.80;;;18.20;99.90;;;;;;5062380;28;20038;-72
2022/11/01 12:36:50;;;;;;;4.57;0.85;;;18.40;99.90;;;;;;5070062;28;20037;-76
2022/11/01 12:39:18;;;;;;;6.85;1.20;;;18.60;99.90;;;;;;5053356;28;20116;-72
2022/11/01 12:41:50;;;;;;;2.83;0.60;;;18.90;99.90;;;;;;5053470;28;20103;-75
2022/11/01 12:44:28;;;;;;;4.25;0.75;;;19.10;99.90;;;;;;5053099;28;20075;-73
2022/11/01 12:47:15;;;;;;;1.67;0.70;;;19.00;99.90;;;;;;5052302;28;20397;-74
2022/11/01 12:50:01;;;;;;;2.63;0.70;;;18.50;99.90;;;;;;5082201;28;20040;-73
2022/11/01 12:52:38;;;;;;;1.70;0.73;;;18.50;99.90;;;;;;5070941;28;20044;-73
2022/11/01 12:55:05;;;;;;;2.97;0.75;;;;;;;;;;5070550;28;20028;-73
2022/11/01 12:57:31;;;;;;;1.70;0.80;;;18.20;99.90;;;;;;5068704;28;20097;-72
2022/11/01 12:59:57;;;;;;;3.35;0.98;;;18.20;99.90;;;;;;5076745;28;20601;-72
2022/11/01 13:02:54;;;;;;;3.80;0.80;;;18.40;99.90;;;;;;5071146;28;20106;-72
2022/11/01 13:05:38;;;;;;;3.45;0.80;;;18.40;99.90;;;;;;5080658;28;20060;-72
2022/11/01 13:08:22;;;;;;;4.25;1.02;;;18.50;99.90;;;;;;5070202;28;20033;-72
2022/11/01 13:10:48;;;;;;;4.18;0.80;;;18.60;99.90;;;;;;5070320;28;20076;-74
2022/11/01 13:13:17;;;;;;;4.15;0.70;;;18.70;99.90;;;;;;5089104;28;20128;-73